Time;durP1;ratioP1;P1;durP2;ratioP2;P2;SDS_P1;SDS_P2;PMS_P1;PMS_P2;Temp;Humidity;BMP_temperature;BMP_pressure;BME280_temperature;BME280_humidity;BME280_pressure;Samples;Min_cycle;Max_cycle;Signal;HPM_P1;HPM_P2
2022/06/12 00:00:39;;;;;;;;;;;;;;;14.93;100.00;102231.56;5001070;28;19922;-29
2022/06/12 00:03:09;;;;;;;;;;;;;;;14.94;100.00;102223.97;5008946;28;20822;-29
2022/06/12 00:05:38;;;;;;;;;;;;;;;14.93;100.00;102223.13;5002484;28;19931;-29
2022/06/12 00:08:06;;;;;;;;;;;;;;;14.94;100.00;102221.16;5004870;28;20012;-29
2022/06/12 00:10:35;;;;;;;;;;;;;;;14.93;100.00;102223.13;5003135;28;20381;-29
2022/06/12 00:13:03;;;;;;;;;;;;;;;14.93;100.00;102213.84;5004299;28;19921;-29
2022/06/12 00:15:31;;;;;;;;;;;;;;;14.93;100.00;102216.66;5002961;28;19921;-28
2022/06/12 00:18:00;;;;;;;;;;;;;;;14.93;100.00;102213.84;5004698;28;20393;-29
2022/06/12 00:20:29;;;;;;;;;;;;;;;14.93;100.00;102208.22;5001930;28;19926;-29
2022/06/12 00:22:58;;;;;;;;;;;;;;;14.92;100.00;102210.22;5004891;28;19926;-29
2022/06/12 00:25:28;;;;;;;;;;;;;;;14.94;100.00;102212.72;5004675;28;19925;-29
2022/06/12 00:27:55;;;;;;;;;;;;;;;14.93;100.00;102202.59;5010315;28;19932;-29
2022/06/12 00:30:25;;;;;;;;;;;;;;;14.94;100.00;102204.28;5000456;28;19925;-29
2022/06/12 00:32:54;;;;;;;;;;;;;;;14.94;100.00;102199.50;4999739;28;19928;-29
2022/06/12 00:35:23;;;;;;;;;;;;;;;14.95;100.00;102197.53;4999376;28;19932;-29
2022/06/12 00:37:52;;;;;;;;;;;;;;;14.94;100.00;102193.88;5000044;28;19944;-29
2022/06/12 00:40:20;;;;;;;;;;;;;;;14.95;100.00;102197.53;5001287;28;19929;-29
2022/06/12 00:42:50;;;;;;;;;;;;;;;14.94;100.00;102202.31;4997791;28;19921;-29
2022/06/12 00:45:30;;;;;;;;;;;;;;;14.93;100.00;102194.19;5000146;28;20370;-29
2022/06/12 00:47:58;;;;;;;;;;;;;;;14.93;100.00;102194.19;4999332;28;19968;-29
2022/06/12 00:50:26;;;;;;;;;;;;;;;14.94;100.00;102195.84;4999734;28;19925;-29
2022/06/12 00:52:56;;;;;;;;;;;;;;;14.92;100.00;102190.53;4999812;28;19932;-28
2022/06/12 00:55:25;;;;;;;;;;;;;;;14.93;100.00;102197.00;5014110;28;19922;-28
2022/06/12 00:57:54;;;;;;;;;;;;;;;14.91;100.00;102188.84;4999523;28;19971;-28
2022/06/12 01:00:21;;;;;;;;;;;;;;;14.91;100.00;102188.84;4999773;28;19929;-28
2022/06/12 01:02:49;;;;;;;;;;;;;;;14.92;100.00;102192.50;5000873;28;19980;-28
2022/06/12 01:08:07;;;;;;;;;;;;;;;14.92;100.00;102186.88;5003406;28;19921;-28
2022/06/12 01:10:36;;;;;;;;;;;;;;;14.93;100.00;102191.38;5018839;28;19922;-28
2022/06/12 01:13:06;;;;;;;;;;;;;;;14.93;100.00;102192.22;5002089;28;19922;-28
2022/06/12 01:15:36;;;;;;;;;;;;;;;14.93;100.00;102186.59;5004350;28;19922;-28
2022/06/12 01:18:06;;;;;;;;;;;;;;;14.93;100.00;102182.94;5002227;28;19921;-28
2022/06/12 01:20:39;;;;;;;;;;;;;;;14.93;100.00;102189.41;5004290;28;19925;-28
2022/06/12 01:23:22;;;;;;;;;;;;;;;14.92;100.00;102190.53;5000907;28;19925;-28
2022/06/12 01:26:11;;;;;;;;;;;;;;;14.90;100.00;102181.56;4997313;28;19928;-28
2022/06/12 01:28:48;;;;;;;;;;;;;;;14.90;100.00;102183.53;4992372;28;19943;-28
2022/06/12 01:31:30;;;;;;;;;;;;;;;14.88;100.00;102178.19;5003149;28;19931;-28
2022/06/12 01:34:08;;;;;;;;;;;;;;;14.86;100.00;102185.25;5003661;28;19988;-28
2022/06/12 01:36:43;;;;;;;;;;;;;;;14.84;100.00;102182.72;5004502;28;19933;-28
2022/06/12 01:39:16;;;;;;;;;;;;;;;14.85;100.00;102194.81;5004263;28;19999;-28
2022/06/12 01:41:50;;;;;;;;;;;;;;;14.83;100.00;102187.50;4993527;28;19921;-28
2022/06/12 01:44:23;;;;;;;;;;;;;;;14.85;100.00;102194.81;4999514;28;19932;-28
2022/06/12 01:46:54;;;;;;;;;;;;;;;14.83;100.00;102193.13;5000810;28;19928;-28
2022/06/12 01:49:25;;;;;;;;;;;;;;;14.86;100.00;102188.06;5002453;28;19922;-28
2022/06/12 01:51:57;;;;;;;;;;;;;;;14.85;100.00;102189.19;5003069;28;19921;-28
2022/06/12 01:54:28;;;;;;;;;;;;;;;14.85;100.00;102187.22;5001503;28;19959;-28
2022/06/12 01:57:03;;;;;;;;;;;;;;;14.86;100.00;102188.06;5003968;28;20346;-28
2022/06/12 01:59:38;;;;;;;;;;;;;;;14.83;100.00;102187.50;5000790;28;19925;-28
2022/06/12 02:02:10;;;;;;;;;;;;;;;14.84;100.00;102182.72;5003662;28;19963;-28
2022/06/12 02:04:40;;;;;;;;;;;;;;;14.84;100.00;102188.34;5001416;28;19925;-28
2022/06/12 02:07:14;;;;;;;;;;;;;;;14.83;100.00;102187.50;5002772;28;20369;-28
2022/06/12 02:09:45;;;;;;;;;;;;;;;14.85;100.00;102187.22;5001699;28;20012;-28
2022/06/12 02:15:03;;;;;;;;;;;;;;;14.87;100.00;102186.91;5001545;28;19927;-28
2022/06/12 02:17:33;;;;;;;;;;;;;;;14.88;100.00;102194.22;5003494;28;19921;-29
2022/06/12 02:20:04;;;;;;;;;;;;;;;14.87;100.00;102187.75;5000884;28;19928;-28
2022/06/12 02:22:33;;;;;;;;;;;;;;;14.88;100.00;102185.78;5018817;28;19921;-28
2022/06/12 02:25:04;;;;;;;;;;;;;;;14.85;100.00;102184.41;5003521;28;20286;-28
2022/06/12 02:27:34;;;;;;;;;;;;;;;14.85;100.00;102177.94;5002788;28;19925;-28
2022/06/12 02:30:06;;;;;;;;;;;;;;;14.85;100.00;102166.69;5004787;28;20297;-28
2022/06/12 02:32:35;;;;;;;;;;;;;;;14.86;100.00;102171.19;5007083;28;20285;-28
2022/06/12 02:35:05;;;;;;;;;;;;;;;14.86;100.00;102162.75;5004010;28;19941;-28
2022/06/12 02:37:36;;;;;;;;;;;;;;;14.82;100.00;102168.13;5006865;28;19921;-28
2022/06/12 02:40:07;;;;;;;;;;;;;;;14.80;100.00;102165.63;5003853;28;20001;-28
2022/06/12 02:42:37;;;;;;;;;;;;;;;14.78;100.00;102155.81;5004014;28;19921;-28
2022/06/12 02:45:09;;;;;;;;;;;;;;;14.74;100.00;102166.81;5003989;28;19972;-28
2022/06/12 02:47:38;;;;;;;;;;;;;;;14.73;100.00;102165.13;5001627;28;19921;-28
2022/06/12 02:50:07;;;;;;;;;;;;;;;14.71;100.00;102164.59;5002640;28;19942;-28
2022/06/12 02:52:41;;;;;;;;;;;;;;;14.69;100.00;102169.66;5001732;28;19922;-28
2022/06/12 02:55:13;;;;;;;;;;;;;;;14.67;100.00;102171.94;5000926;28;19929;-28
2022/06/12 02:57:47;;;;;;;;;;;;;;;14.69;100.00;102169.66;4997720;28;19921;-28
2022/06/12 03:00:19;;;;;;;;;;;;;;;14.70;100.00;102168.53;5006751;28;19945;-28
2022/06/12 03:02:50;;;;;;;;;;;;;;;14.71;100.00;102173.03;5005808;28;20012;-28
2022/06/12 03:05:21;;;;;;;;;;;;;;;14.71;100.00;102172.19;5006259;28;19926;-28
2022/06/12 03:07:50;;;;;;;;;;;;;;;14.70;100.00;102165.72;5006608;28;19928;-28
2022/06/12 03:10:20;;;;;;;;;;;;;;;14.69;100.00;102168.81;5004395;28;19922;-28
2022/06/12 03:12:50;;;;;;;;;;;;;;;14.68;100.00;102173.59;5000014;28;19925;-28
2022/06/12 03:15:40;;;;;;;;;;;;;;;14.67;100.00;102168.28;5000159;28;20008;-28
2022/06/12 03:18:10;;;;;;;;;;;;;;;14.65;100.00;102167.72;5002704;28;19922;-28
2022/06/12 03:20:42;;;;;;;;;;;;;;;14.65;100.00;102167.72;5005199;28;19945;-28
2022/06/12 03:23:21;;;;;;;;;;;;;;;14.64;100.00;102172.50;5000786;28;19928;-28
2022/06/12 03:25:51;;;;;;;;;;;;;;;14.63;100.00;102172.81;4999421;28;20310;-28
2022/06/12 03:28:24;;;;;;;;;;;;;;;14.63;100.00;102167.19;5006253;28;19965;-28
2022/06/12 03:30:59;;;;;;;;;;;;;;;14.62;100.00;102168.31;5001308;28;19921;-28
2022/06/12 03:33:32;;;;;;;;;;;;;;;14.61;100.00;102178.72;5006028;28;19967;-28
2022/06/12 03:36:03;;;;;;;;;;;;;;;14.61;100.00;102175.06;4998879;28;20016;-28
2022/06/12 03:38:35;;;;;;;;;;;;;;;14.58;100.00;102170.91;4997891;28;19922;-28
2022/06/12 03:41:07;;;;;;;;;;;;;;;14.56;100.00;102175.97;5004203;28;19925;-28
2022/06/12 03:43:38;;;;;;;;;;;;;;;14.53;100.00;102168.13;4999812;28;19922;-29
2022/06/12 03:46:13;;;;;;;;;;;;;;;14.53;100.00;102175.72;5000492;28;19930;-28
2022/06/12 03:48:44;;;;;;;;;;;;;;;14.50;100.00;102174.34;5000454;28;19961;-28
2022/06/12 03:51:14;;;;;;;;;;;;;;;14.48;100.00;102169.00;5000295;28;19922;-28
2022/06/12 03:53:46;;;;;;;;;;;;;;;14.46;100.00;102179.69;5000918;28;19928;-28
2022/06/12 03:59:09;;;;;;;;;;;;;;;14.47;100.00;102186.16;5004996;28;20301;-28
2022/06/12 04:01:39;;;;;;;;;;;;;;;14.45;100.00;102183.63;5005775;28;19922;-28
2022/06/12 04:04:06;;;;;;;;;;;;;;;14.45;100.00;102182.78;5005795;28;19921;-28
2022/06/12 04:06:34;;;;;;;;;;;;;;;14.47;100.00;102183.34;5004585;28;19929;-28
2022/06/12 04:09:05;;;;;;;;;;;;;;;14.48;100.00;102179.41;5003769;28;19925;-28
2022/06/12 04:11:34;;;;;;;;;;;;;;;14.48;100.00;102185.84;5004498;28;19927;-28
2022/06/12 04:14:03;;;;;;;;;;;;;;;14.48;100.00;102190.63;5003014;28;19925;-28
2022/06/12 04:16:33;;;;;;;;;;;;;;;14.50;100.00;102185.56;5004961;28;20401;-28
2022/06/12 04:19:04;;;;;;;;;;;;;;;14.50;100.00;102179.94;5002252;28;19922;-28
2022/06/12 04:21:35;;;;;;;;;;;;;;;14.53;100.00;102186.97;5005096;28;19921;-28
2022/06/12 04:24:07;;;;;;;;;;;;;;;14.56;100.00;102184.41;5002629;28;20016;-29
2022/06/12 04:26:36;;;;;;;;;;;;;;;14.58;100.00;102186.91;5006994;28;19921;-29
2022/06/12 04:29:05;;;;;;;;;;;;;;;14.58;100.00;102184.94;5000082;28;19944;-28
2022/06/12 04:31:34;;;;;;;;;;;;;;;14.60;100.00;102188.28;5004780;28;19925;-28
2022/06/12 04:34:11;;;;;;;;;;;;;;;14.62;100.00;102188.81;5017238;28;19995;-28
2022/06/12 04:36:39;;;;;;;;;;;;;;;14.63;100.00;102186.84;5004797;28;20301;-28
2022/06/12 04:39:07;;;;;;;;;;;;;;;14.64;100.00;102194.16;5002200;28;19922;-28
2022/06/12 04:41:36;;;;;;;;;;;;;;;14.63;100.00;102196.13;5003858;28;20024;-29
2022/06/12 04:44:04;;;;;;;;;;;;;;;14.62;100.00;102197.25;5002681;28;19922;-29
2022/06/12 04:46:33;;;;;;;;;;;;;;;14.61;100.00;102198.38;4999782;28;19928;-29
2022/06/12 04:49:01;;;;;;;;;;;;;;;14.63;100.00;102189.66;4988804;28;19944;-29
2022/06/12 04:51:30;;;;;;;;;;;;;;;14.65;100.00;102201.44;4999546;28;19933;-28
2022/06/12 04:53:58;;;;;;;;;;;;;;;14.66;100.00;102203.97;4998993;28;20409;-28
2022/06/12 04:56:27;;;;;;;;;;;;;;;14.70;100.00;102205.06;5000129;28;19925;-28
2022/06/12 04:58:56;;;;;;;;;;;;;;;14.76;100.00;102203.91;5001008;28;19921;-28
2022/06/12 05:01:24;;;;;;;;;;;;;;;14.82;100.00;102208.31;5003568;28;20286;-29
2022/06/12 05:03:56;;;;;;;;;;;;;;;14.88;100.00;102211.09;4999207;28;20011;-28
2022/06/12 05:06:23;;;;;;;;;;;;;;;14.93;100.00;102208.22;4997719;28;19965;-29
2022/06/12 05:08:53;;;;;;;;;;;;;;;14.96;100.00;102210.47;4997958;28;19922;-29
2022/06/12 05:11:21;;;;;;;;;;;;;;;14.97;100.00;102215.78;4999321;28;19921;-29
2022/06/12 05:13:49;;;;;;;;;;;;;;;14.98;100.00;102211.00;4999382;28;19953;-28
2022/06/12 05:16:21;;;;;;;;;;;;;;;14.99;100.00;102207.88;5000076;28;19922;-28
2022/06/12 05:18:48;;;;;;;;;;;;;;;15.00;100.00;102209.53;5014720;28;19957;-28
2022/06/12 05:21:16;;;;;;;;;;;;;;;15.02;100.00;102212.06;5001874;28;20392;-28
2022/06/12 05:23:44;;;;;;;;;;;;;;;15.07;100.00;102212.03;4998888;28;19944;-28
2022/06/12 05:26:15;;;;;;;;;;;;;;;15.09;100.00;102213.41;5006453;28;19928;-28
2022/06/12 05:28:42;;;;;;;;;;;;;;;15.11;100.00;102219.56;5003896;28;19921;-28
2022/06/12 05:31:10;;;;;;;;;;;;;;;15.15;100.00;102223.47;5000086;28;19932;-29
2022/06/12 05:33:38;;;;;;;;;;;;;;;15.18;100.00;102216.41;5003191;28;19925;-28
2022/06/12 05:36:06;;;;;;;;;;;;;;;15.22;100.00;102219.44;5006414;28;20351;-28
2022/06/12 05:38:35;;;;;;;;;;;;;;;15.23;100.00;102224.78;4998599;28;19928;-28
2022/06/12 05:41:03;;;;;;;;;;;;;;;15.24;100.00;102218.03;4998469;28;20024;-28
2022/06/12 05:43:32;;;;;;;;;;;;;;;15.25;100.00;102222.50;5005549;28;19976;-28
2022/06/12 05:46:00;;;;;;;;;;;;;;;15.28;100.00;102221.09;5002153;28;20397;-28
2022/06/12 05:48:27;;;;;;;;;;;;;;;15.33;100.00;102218.22;5003557;28;20019;-29
2022/06/12 05:50:57;;;;;;;;;;;;;;;15.38;100.00;102227.44;5002325;28;20406;-28
2022/06/12 05:53:26;;;;;;;;;;;;;;;15.45;100.00;102225.09;5003431;28;20016;-28
2022/06/12 05:55:54;;;;;;;;;;;;;;;15.56;100.00;102227.84;4999066;28;19932;-28
2022/06/12 05:58:24;;;;;;;;;;;;;;;15.64;100.00;102230.81;4997461;28;20315;-28
2022/06/12 06:00:53;;;;;;;;;;;;;;;15.71;100.00;102236.94;5002779;28;19948;-28
2022/06/12 06:03:26;;;;;;;;;;;;;;;15.76;100.00;102231.25;5006456;28;20013;-28
2022/06/12 06:05:54;;;;;;;;;;;;;;;15.78;100.00;102237.41;5003463;28;20046;-28
2022/06/12 06:08:22;;;;;;;;;;;;;;;15.77;100.00;102235.75;4999493;28;20012;-28
2022/06/12 06:10:49;;;;;;;;;;;;;;;15.81;100.00;102235.94;5001698;28;20024;-28
2022/06/12 06:13:17;;;;;;;;;;;;;;;15.87;100.00;102239.53;5001528;28;19932;-28
2022/06/12 06:15:47;;;;;;;;;;;;;;;15.94;100.00;102237.22;5001872;28;19925;-28
2022/06/12 06:18:16;;;;;;;;;;;;;;;16.02;100.00;102237.34;4997962;28;20410;-28
2022/06/12 06:20:44;;;;;;;;;;;;;;;16.12;100.00;102239.22;5006192;28;19929;-28
2022/06/12 06:23:12;;;;;;;;;;;;;;;16.26;100.00;102236.47;4998778;28;20301;-28
2022/06/12 06:25:40;;;;;;;;;;;;;;;16.39;100.00;102236.53;5004431;28;20310;-29
2022/06/12 06:28:09;;;;;;;;;;;;;;;16.53;100.00;102236.63;5000085;28;19921;-28
2022/06/12 06:30:38;;;;;;;;;;;;;;;16.76;100.00;102244.16;5002945;28;19926;-28
2022/06/12 06:33:05;;;;;;;;;;;;;;;17.02;100.00;102238.06;5003089;28;19932;-31
2022/06/12 06:35:35;;;;;;;;;;;;;;;17.38;100.00;102253.22;5000846;28;19932;-30
2022/06/12 06:38:03;;;;;;;;;;;;;;;17.84;100.00;102255.13;5002637;28;19925;-31
2022/06/12 06:40:32;;;;;;;;;;;;;;;18.37;100.00;102251.72;5015053;28;20027;-34
2022/06/12 06:43:06;;;;;;;;;;;;;;;18.91;100.00;102254.34;5003773;28;19921;-29
2022/06/12 06:48:19;;;;;;;;;;;;;;;20.24;100.00;102257.13;5002099;28;19921;-29
2022/06/12 06:50:48;;;;;;;;;;;;;;;20.67;100.00;102267.72;5000840;28;20386;-32
2022/06/12 06:53:16;;;;;;;;;;;;;;;20.93;92.13;102263.72;5000485;28;20299;-29
2022/06/12 06:55:44;;;;;;;;;;;;;;;21.12;91.56;102263.34;5000538;28;19929;-31
2022/06/12 06:58:13;;;;;;;;;;;;;;;21.54;87.99;102264.44;5000612;28;20109;-30
2022/06/12 07:00:42;;;;;;;;;;;;;;;22.08;88.45;102266.69;5000051;28;19933;-30
2022/06/12 07:03:11;;;;;;;;;;;;;;;22.58;83.33;102269.56;5000569;28;20478;-31
2022/06/12 07:05:40;;;;;;;;;;;;;;;23.19;83.46;102272.69;4999379;28;20389;-29
2022/06/12 07:08:09;;;;;;;;;;;;;;;23.62;78.32;102266.53;5000253;28;19928;-30
2022/06/12 07:10:39;;;;;;;;;;;;;;;23.98;71.10;102282.84;4999028;28;19922;-31
2022/06/12 07:13:07;;;;;;;;;;;;;;;24.21;70.73;102275.44;4999752;28;20380;-33
2022/06/12 07:15:35;;;;;;;;;;;;;;;24.38;68.27;102278.06;4998424;28;19922;-35
2022/06/12 07:18:04;;;;;;;;;;;;;;;24.54;64.57;102280.19;5006333;28;19928;-29
2022/06/12 07:20:33;;;;;;;;;;;;;;;24.91;67.78;102275.19;4997042;28;19925;-29
2022/06/12 07:23:03;;;;;;;;;;;;;;;25.40;66.15;102270.91;4999190;28;19933;-30
2022/06/12 07:25:33;;;;;;;;;;;;;;;25.95;64.49;102271.19;5017069;28;19926;-32
2022/06/12 07:28:00;;;;;;;;;;;;;;;26.40;61.65;102276.38;4999431;28;20289;-31
2022/06/12 07:30:35;;;;;;;;;;;;;;;26.82;59.84;102279.38;5001792;28;19961;-29
2022/06/12 07:33:03;;;;;;;;;;;;;;;27.18;57.09;102283.03;4999987;28;19926;-31
2022/06/12 07:35:30;;;;;;;;;;;;;;;27.30;55.17;102286.53;5001055;28;20025;-31
2022/06/12 07:37:58;;;;;;;;;;;;;;;27.37;51.45;102292.44;4999946;28;19922;-31
2022/06/12 07:40:29;;;;;;;;;;;;;;;27.33;53.32;102284.97;5002164;28;19945;-30
2022/06/12 07:42:58;;;;;;;;;;;;;;;27.44;52.96;102280.25;4993549;28;19932;-35
2022/06/12 07:45:27;;;;;;;;;;;;;;;27.56;50.23;102276.38;5001348;28;19925;-31
2022/06/12 07:47:54;;;;;;;;;;;;;;;27.77;52.66;102268.19;5014693;28;19937;-33
2022/06/12 07:50:22;;;;;;;;;;;;;;;28.05;52.78;102276.44;4995754;28;20355;-31
2022/06/12 07:52:49;;;;;;;;;;;;;;;28.31;50.23;102281.41;5004501;28;19922;-34
2022/06/12 07:55:19;;;;;;;;;;;;;;;28.44;43.88;102286.53;5003569;28;19921;-34
2022/06/12 07:57:48;;;;;;;;;;;;;;;28.23;47.92;102279.63;5003812;28;19922;-30
2022/06/12 08:00:18;;;;;;;;;;;;;;;28.28;50.21;102285.03;5009856;28;19948;-30
2022/06/12 08:02:47;;;;;;;;;;;;;;;28.43;46.73;102275.41;4999227;28;19936;-31
2022/06/12 08:05:16;;;;;;;;;;;;;;;28.54;46.29;102281.34;4997439;28;20449;-31
2022/06/12 08:07:44;;;;;;;;;;;;;;;28.59;48.40;102280.97;4999276;28;19921;-30
2022/06/12 08:10:12;;;;;;;;;;;;;;;28.74;45.43;102282.84;5000518;28;20040;-31
2022/06/12 08:12:41;;;;;;;;;;;;;;;28.92;48.17;102286.81;4998541;28;19936;-31
2022/06/12 08:15:11;;;;;;;;;;;;;;;29.17;46.65;102284.25;4999024;28;19949;-32
2022/06/12 08:17:40;;;;;;;;;;;;;;;29.39;47.02;102283.28;4998396;28;19944;-31
2022/06/12 08:20:28;;;;;;;;;;;;;;;29.35;44.44;102282.41;4998781;28;19963;-29
2022/06/12 08:22:58;;;;;;;;;;;;;;;29.34;44.73;102297.19;4998346;28;19968;-31
2022/06/12 08:25:26;;;;;;;;;;;;;;;29.52;45.63;102300.28;4998451;28;19925;-33
2022/06/12 08:27:53;;;;;;;;;;;;;;;29.57;41.30;102300.75;4994480;28;19925;-31
2022/06/12 08:30:21;;;;;;;;;;;;;;;29.58;43.17;102310.19;5003962;28;19921;-31
2022/06/12 08:32:52;;;;;;;;;;;;;;;29.60;44.93;102305.69;5001520;28;19925;-34
2022/06/12 08:35:22;;;;;;;;;;;;;;;29.54;45.25;102304.41;5003824;28;19925;-32
2022/06/12 08:37:50;;;;;;;;;;;;;;;29.41;41.29;102306.72;5001041;28;19925;-31
2022/06/12 08:40:22;;;;;;;;;;;;;;;29.12;44.44;102307.59;5002416;28;20297;-31
2022/06/12 08:42:53;;;;;;;;;;;;;;;28.99;44.79;102311.94;5001053;28;20025;-33
2022/06/12 08:45:22;;;;;;;;;;;;;;;28.70;41.87;102317.28;4998795;28;19928;-31
2022/06/12 08:47:53;;;;;;;;;;;;;;;28.50;44.74;102312.03;5015418;28;20294;-31
2022/06/12 08:50:24;;;;;;;;;;;;;;;28.58;43.85;102313.81;4998955;28;20285;-32
2022/06/12 08:52:54;;;;;;;;;;;;;;;28.54;44.35;102313.75;5000085;28;19929;-32
2022/06/12 08:55:26;;;;;;;;;;;;;;;28.47;44.40;102316.50;4998392;28;19921;-30
2022/06/12 08:57:56;;;;;;;;;;;;;;;28.68;45.22;102322.56;5001112;28;19929;-29
2022/06/12 09:00:25;;;;;;;;;;;;;;;28.81;43.83;102314.56;4997966;28;19922;-31
2022/06/12 09:02:55;;;;;;;;;;;;;;;28.80;44.83;102313.75;5000554;28;19953;-31
2022/06/12 09:05:26;;;;;;;;;;;;;;;29.02;46.00;102314.03;4996568;28;19929;-31
2022/06/12 09:07:57;;;;;;;;;;;;;;;29.31;45.11;102313.16;4999866;28;20028;-31
2022/06/12 09:10:29;;;;;;;;;;;;;;;29.29;41.92;102311.91;4998812;28;19921;-33
2022/06/12 09:13:02;;;;;;;;;;;;;;;29.03;43.18;102304.19;5000058;28;19927;-31
2022/06/12 09:15:35;;;;;;;;;;;;;;;28.59;42.23;102306.81;4994835;28;20367;-32
2022/06/12 09:18:08;;;;;;;;;;;;;;;28.51;44.24;102311.66;5001792;28;20297;-30
2022/06/12 09:20:41;;;;;;;;;;;;;;;28.63;42.39;102311.41;5004388;28;19922;-29
2022/06/12 09:23:14;;;;;;;;;;;;;;;28.54;43.39;102305.16;4998970;28;19928;-29
2022/06/12 09:25:46;;;;;;;;;;;;;;;28.49;46.33;102313.25;4999204;28;20378;-34
2022/06/12 09:28:19;;;;;;;;;;;;;;;28.33;43.84;102307.69;5008745;28;19930;-28
2022/06/12 09:30:49;;;;;;;;;;;;;;;28.08;44.10;102298.63;4999355;28;19980;-30
2022/06/12 09:33:24;;;;;;;;;;;;;;;27.65;43.34;102300.75;5000374;28;19921;-29
2022/06/12 09:35:59;;;;;;;;;;;;;;;27.31;46.07;102304.56;4997860;28;19965;-28
2022/06/12 09:38:38;;;;;;;;;;;;;;;27.33;46.69;102310.75;5003090;28;20017;-28
2022/06/12 09:41:10;;;;;;;;;;;;;;;27.33;46.33;102313.63;4999316;28;20358;-28
2022/06/12 09:43:40;;;;;;;;;;;;;;;26.96;47.80;102304.69;5007456;28;20212;-27
2022/06/12 09:46:15;;;;;;;;;;;;;;;26.84;47.58;102302.75;5004435;28;20426;-28
2022/06/12 09:48:54;;;;;;;;;;;;;;;26.49;45.51;102304.81;5006173;28;19922;-28
2022/06/12 09:51:27;;;;;;;;;;;;;;;26.13;47.51;102298.19;5005793;28;20032;-27
2022/06/12 09:54:05;;;;;;;;;;;;;;;26.13;49.64;102309.66;5007174;28;19922;-33
2022/06/12 09:56:37;;;;;;;;;;;;;;;25.83;48.62;102302.72;5004371;28;19959;-30
2022/06/12 09:59:14;;;;;;;;;;;;;;;25.54;50.89;102296.22;5007139;28;20453;-27
2022/06/12 10:01:44;;;;;;;;;;;;;;;25.40;50.07;102299.50;5007915;28;19922;-27
2022/06/12 10:04:18;;;;;;;;;;;;;;;25.56;54.33;102301.56;5006079;28;20410;-28
2022/06/12 10:06:48;;;;;;;;;;;;;;;25.66;51.14;102292.47;5004419;28;19926;-28
2022/06/12 10:09:18;;;;;;;;;;;;;;;25.60;51.26;102297.59;5003710;28;19921;-27
2022/06/12 10:11:50;;;;;;;;;;;;;;;25.37;49.95;102296.56;5000774;28;20027;-29
2022/06/12 10:14:21;;;;;;;;;;;;;;;25.09;51.03;102301.47;5003486;28;19928;-30
2022/06/12 10:16:52;;;;;;;;;;;;;;;24.86;54.58;102289.72;5001848;28;20373;-30
2022/06/12 10:19:40;;;;;;;;;;;;;;;24.95;54.73;102284.75;5003659;28;19968;-30
2022/06/12 10:22:10;;;;;;;;;;;;;;;25.06;52.22;102291.59;5007202;28;19933;-28
2022/06/12 10:24:38;;;;;;;;;;;;;;;24.98;54.19;102295.44;5001781;28;19926;-29
2022/06/12 10:27:07;;;;;;;;;;;;;;;24.59;53.30;102295.03;5008581;28;20382;-28
2022/06/12 10:29:43;;;;;;;;;;;;;;;24.51;53.52;102286.63;5002434;28;19928;-30
2022/06/12 10:32:13;;;;;;;;;;;;;;;24.34;55.20;102291.41;5016397;28;19929;-29
2022/06/12 10:34:42;;;;;;;;;;;;;;;24.20;56.15;102284.34;5002077;28;19921;-28
2022/06/12 10:37:11;;;;;;;;;;;;;;;24.31;57.31;102291.28;5001717;28;19921;-30
2022/06/12 10:39:40;;;;;;;;;;;;;;;24.10;56.22;102291.38;5001326;28;19925;-28
2022/06/12 10:42:25;;;;;;;;;;;;;;;23.99;55.48;102281.63;5010646;28;19963;-28
2022/06/12 10:44:55;;;;;;;;;;;;;;;23.89;56.47;102287.81;5006426;28;20409;-28
2022/06/12 10:47:24;;;;;;;;;;;;;;;23.99;59.52;102285.31;5005737;28;20305;-28
2022/06/12 10:50:14;;;;;;;;;;;;;;;24.42;60.22;102283.06;5006364;28;19921;-29
2022/06/12 10:52:50;;;;;;;;;;;;;;;24.83;58.53;102297.00;5003211;28;19925;-29
2022/06/12 10:55:19;;;;;;;;;;;;;;;24.93;55.38;102290.78;5006976;28;19929;-28
2022/06/12 10:57:51;;;;;;;;;;;;;;;24.75;55.04;102289.41;5006096;28;20393;-27
2022/06/12 11:00:20;;;;;;;;;;;;;;;24.76;55.99;102290.25;5005988;28;20362;-27
2022/06/12 11:02:52;;;;;;;;;;;;;;;24.78;54.93;102300.09;5004832;28;19921;-28
2022/06/12 11:05:39;;;;;;;;;;;;;;;24.61;53.36;102298.34;5006180;28;20322;-28
2022/06/12 11:08:16;;;;;;;;;;;;;;;24.55;56.13;102299.00;5000907;28;19925;-29
2022/06/12 11:10:45;;;;;;;;;;;;;;;24.32;53.47;102302.34;5011614;28;20366;-27
2022/06/12 11:13:25;;;;;;;;;;;;;;;24.39;58.46;102301.72;5005270;28;19925;-28
2022/06/12 11:16:03;;;;;;;;;;;;;;;24.56;56.28;102298.63;5006039;28;19921;-30
2022/06/12 11:18:35;;;;;;;;;;;;;;;24.42;54.15;102294.47;5006083;28;19922;-27
2022/06/12 11:21:07;;;;;;;;;;;;;;;24.39;57.46;102296.84;4994340;28;20413;-27
2022/06/12 11:23:53;;;;;;;;;;;;;;;24.55;56.09;102296.13;5002416;28;19922;-27
2022/06/12 11:26:27;;;;;;;;;;;;;;;24.41;54.72;102302.19;5004128;28;20370;-27
2022/06/12 11:29:01;;;;;;;;;;;;;;;24.31;57.44;102299.84;5005339;28;19932;-30
2022/06/12 11:31:42;;;;;;;;;;;;;;;24.25;58.01;102304.97;5006000;28;19928;-31
2022/06/12 11:34:15;;;;;;;;;;;;;;;23.98;55.66;102308.50;5005828;28;19921;-28
2022/06/12 11:36:48;;;;;;;;;;;;;;;23.89;57.17;102310.63;5005616;28;20300;-30
2022/06/12 11:39:25;;;;;;;;;;;;;;;23.91;60.17;102303.38;5006008;28;19929;-28
2022/06/12 11:42:00;;;;;;;;;;;;;;;23.85;58.42;102306.81;4995778;28;19921;-28
2022/06/12 11:44:32;;;;;;;;;;;;;;;23.69;58.53;102310.38;5000555;28;20290;-28
2022/06/12 11:47:06;;;;;;;;;;;;;;;23.38;58.72;102309.19;5000666;28;19922;-30
2022/06/12 11:49:42;;;;;;;;;;;;;;;23.34;61.03;102297.66;4999524;28;19932;-32
2022/06/12 11:52:19;;;;;;;;;;;;;;;23.41;61.72;102297.91;5003649;28;19922;-30
2022/06/12 11:54:55;;;;;;;;;;;;;;;23.55;61.85;102295.63;5005280;28;20386;-30
2022/06/12 11:57:26;;;;;;;;;;;;;;;23.56;61.59;102296.47;5004378;28;20331;-28
2022/06/12 11:59:59;;;;;;;;;;;;;;;23.73;61.04;102306.81;5005682;28;19931;-27
2022/06/12 12:02:33;;;;;;;;;;;;;;;23.78;57.87;102295.19;5002169;28;19930;-31
2022/06/12 12:05:12;;;;;;;;;;;;;;;23.39;58.18;102305.97;5004482;28;19931;-27
2022/06/12 12:07:49;;;;;;;;;;;;;;;23.18;60.52;102299.53;5003344;28;19921;-26
2022/06/12 12:10:27;;;;;;;;;;;;;;;23.28;61.60;102304.75;5004246;28;19931;-28
2022/06/12 12:12:57;;;;;;;;;;;;;;;23.36;60.24;102304.69;5005035;28;19921;-27
2022/06/12 12:15:26;;;;;;;;;;;;;;;23.23;59.76;102308.66;5004498;28;19921;-27
2022/06/12 12:18:04;;;;;;;;;;;;;;;23.06;62.07;102308.00;5107956;27;19916;-34
2022/06/12 12:20:35;;;;;;;;;;;;;;;23.14;62.37;102301.41;5109421;28;19946;-27
2022/06/12 12:23:04;;;;;;;;;;;;;;;23.12;59.20;102298.91;5109322;28;19938;-27
2022/06/12 12:25:35;;;;;;;;;;;;;;;22.83;60.85;102305.50;5102402;28;20384;-32
2022/06/12 12:28:06;;;;;;;;;;;;;;;22.77;61.79;102306.94;5109389;28;19930;-27
2022/06/12 12:30:38;;;;;;;;;;;;;;;22.72;63.20;102306.25;5109147;28;19970;-28
2022/06/12 12:33:13;;;;;;;;;;;;;;;22.83;64.09;102310.38;5107867;28;19927;-27
2022/06/12 12:41:14;;;;;;;;;;;;;;;23.17;62.27;102306.41;5104401;28;19928;-26
2022/06/12 12:43:49;;;;;;;;;;;;;;;22.92;59.96;102311.16;5108756;28;19924;-27
2022/06/12 12:46:17;;;;;;;;;;;;;;;22.73;61.99;102323.00;5102993;28;19931;-29
2022/06/12 12:48:47;;;;;;;;;;;;;;;22.64;63.39;102316.50;5108379;28;19924;-33
2022/06/12 12:51:26;;;;;;;;;;;;;;;22.47;62.71;102317.47;5108018;28;20162;-29
2022/06/12 12:54:06;;;;;;;;;;;;;;;22.43;62.24;102307.97;5107934;28;20339;-29
2022/06/12 12:56:34;;;;;;;;;;;;;;;22.21;63.07;102311.94;5101836;28;19927;-28
2022/06/12 12:59:05;;;;;;;;;;;;;;;22.14;64.67;102308.81;5106331;28;19930;-28
2022/06/12 13:01:36;;;;;;;;;;;;;;;22.18;65.92;102309.78;5108086;28;19934;-29
2022/06/12 13:04:12;;;;;;;;;;;;;;;22.55;66.03;102316.59;5107387;28;19982;-35
2022/06/12 13:06:49;;;;;;;;;;;;;;;22.79;63.96;102315.09;5106974;28;19924;-25